sensor_id;sensor_type;location;lat;lon;timestamp;P1;P2;P0
46302;PMS7003;32029;51.358;5.628;2024-02-23T00:02:11;8.33;6.00;5.00
46302;PMS7003;32029;51.358;5.628;2024-02-23T00:04:38;5.00;5.00;4.00
46302;PMS7003;32029;51.358;5.628;2024-02-23T00:07:05;4.00;4.00;2.67
46302;PMS7003;32029;51.358;5.628;2024-02-23T00:09:33;4.80;4.80;3.60
46302;PMS7003;32029;51.358;5.628;2024-02-23T00:12:01;5.20;5.20;5.00
46302;PMS7003;32029;51.358;5.628;2024-02-23T00:14:29;4.00;4.00;4.00
46302;PMS7003;32029;51.358;5.628;2024-02-23T00:16:58;4.00;4.00;2.80
46302;PMS7003;32029;51.358;5.628;2024-02-23T00:19:25;5.00;5.00;4.00
46302;PMS7003;32029;51.358;5.628;2024-02-23T00:21:51;4.33;4.00;3.33
46302;PMS7003;32029;51.358;5.628;2024-02-23T00:24:19;6.00;6.00;5.00
46302;PMS7003;32029;51.358;5.628;2024-02-23T00:26:47;4.00;4.00;3.33
46302;PMS7003;32029;51.358;5.628;2024-02-23T00:29:14;2.67;2.00;2.00
46302;PMS7003;32029;51.358;5.628;2024-02-23T00:31:41;3.33;3.33;2.00
46302;PMS7003;32029;51.358;5.628;2024-02-23T00:34:08;1.00;1.00;1.00
46302;PMS7003;32029;51.358;5.628;2024-02-23T00:36:39;2.00;2.00;2.00
46302;PMS7003;32029;51.358;5.628;2024-02-23T00:39:07;2.00;2.00;2.00
46302;PMS7003;32029;51.358;5.628;2024-02-23T00:41:34;2.00;1.00;1.00
46302;PMS7003;32029;51.358;5.628;2024-02-23T00:44:02;4.00;2.67;2.00
46302;PMS7003;32029;51.358;5.628;2024-02-23T00:46:29;1.00;1.00;1.00
46302;PMS7003;32029;51.358;5.628;2024-02-23T00:48:56;1.00;1.00;1.00
46302;PMS7003;32029;51.358;5.628;2024-02-23T00:51:23;0.33;0.33;0.00
46302;PMS7003;32029;51.358;5.628;2024-02-23T00:53:49;1.00;1.00;1.00
46302;PMS7003;32029;51.358;5.628;2024-02-23T00:56:16;0.33;0.00;0.00
46302;PMS7003;32029;51.358;5.628;2024-02-23T00:58:43;1.00;1.00;1.00
46302;PMS7003;32029;51.358;5.628;2024-02-23T01:01:09;0.00;0.00;0.00
46302;PMS7003;32029;51.358;5.628;2024-02-23T01:03:36;0.00;0.00;0.00
46302;PMS7003;32029;51.358;5.628;2024-02-23T01:06:03;1.00;0.00;0.00
46302;PMS7003;32029;51.358;5.628;2024-02-23T01:08:29;0.00;0.00;0.00
46302;PMS7003;32029;51.358;5.628;2024-02-23T01:10:57;0.00;0.00;0.00
46302;PMS7003;32029;51.358;5.628;2024-02-23T01:13:24;0.00;0.00;0.00
46302;PMS7003;32029;51.358;5.628;2024-02-23T01:15:51;0.00;0.00;0.00
46302;PMS7003;32029;51.358;5.628;2024-02-23T01:18:18;1.00;0.67;0.00
46302;PMS7003;32029;51.358;5.628;2024-02-23T01:20:44;2.00;0.00;0.00
46302;PMS7003;32029;51.358;5.628;2024-02-23T01:23:11;0.67;0.67;0.67
46302;PMS7003;32029;51.358;5.628;2024-02-23T01:25:38;2.00;0.00;0.00
46302;PMS7003;32029;51.358;5.628;2024-02-23T01:28:05;0.00;0.00;0.00
46302;PMS7003;32029;51.358;5.628;2024-02-23T01:30:32;2.00;0.67;0.33
46302;PMS7003;32029;51.358;5.628;2024-02-23T01:32:58;0.00;0.00;0.00
46302;PMS7003;32029;51.358;5.628;2024-02-23T01:35:26;0.00;0.00;0.00
46302;PMS7003;32029;51.358;5.628;2024-02-23T01:37:54;0.33;0.33;0.00
46302;PMS7003;32029;51.358;5.628;2024-02-23T01:40:20;1.67;0.33;0.00
46302;PMS7003;32029;51.358;5.628;2024-02-23T01:42:47;0.00;0.00;0.00
46302;PMS7003;32029;51.358;5.628;2024-02-23T01:45:14;0.67;0.67;0.67
46302;PMS7003;32029;51.358;5.628;2024-02-23T01:47:40;0.67;0.67;0.00
46302;PMS7003;32029;51.358;5.628;2024-02-23T01:50:07;0.00;0.00;0.00
46302;PMS7003;32029;51.358;5.628;2024-02-23T01:52:35;0.67;0.33;0.00
46302;PMS7003;32029;51.358;5.628;2024-02-23T01:55:02;1.00;1.00;0.00
46302;PMS7003;32029;51.358;5.628;2024-02-23T01:57:30;1.67;0.00;0.00
46302;PMS7003;32029;51.358;5.628;2024-02-23T01:59:56;0.00;0.00;0.00
46302;PMS7003;32029;51.358;5.628;2024-02-23T02:02:23;1.00;0.67;0.00
46302;PMS7003;32029;51.358;5.628;2024-02-23T02:04:50;0.00;0.00;0.00
46302;PMS7003;32029;51.358;5.628;2024-02-23T02:07:16;1.67;0.33;0.00
46302;PMS7003;32029;51.358;5.628;2024-02-23T02:09:44;1.00;1.00;0.00
46302;PMS7003;32029;51.358;5.628;2024-02-23T02:12:11;0.00;0.00;0.00
46302;PMS7003;32029;51.358;5.628;2024-02-23T02:14:38;1.00;0.00;0.00
46302;PMS7003;32029;51.358;5.628;2024-02-23T02:17:04;2.00;0.33;0.00
46302;PMS7003;32029;51.358;5.628;2024-02-23T02:19:32;0.00;0.00;0.00
46302;PMS7003;32029;51.358;5.628;2024-02-23T02:21:58;2.00;0.67;0.00
46302;PMS7003;32029;51.358;5.628;2024-02-23T02:24:25;0.00;0.00;0.00
46302;PMS7003;32029;51.358;5.628;2024-02-23T02:26:52;0.67;0.00;0.00
46302;PMS7003;32029;51.358;5.628;2024-02-23T02:29:19;0.00;0.00;0.00
46302;PMS7003;32029;51.358;5.628;2024-02-23T02:31:45;2.00;2.00;1.00
46302;PMS7003;32029;51.358;5.628;2024-02-23T02:34:12;0.33;0.33;0.00
46302;PMS7003;32029;51.358;5.628;2024-02-23T02:36:40;1.33;0.00;0.00
46302;PMS7003;32029;51.358;5.628;2024-02-23T02:39:07;4.00;1.00;1.00
46302;PMS7003;32029;51.358;5.628;2024-02-23T02:41:34;1.00;1.00;1.00
46302;PMS7003;32029;51.358;5.628;2024-02-23T02:44:00;0.00;0.00;0.00
46302;PMS7003;32029;51.358;5.628;2024-02-23T02:46:27;1.00;1.00;1.00
46302;PMS7003;32029;51.358;5.628;2024-02-23T02:48:54;2.00;2.00;2.00
46302;PMS7003;32029;51.358;5.628;2024-02-23T02:51:20;1.00;1.00;1.00
46302;PMS7003;32029;51.358;5.628;2024-02-23T02:53:47;1.33;0.00;0.00
46302;PMS7003;32029;51.358;5.628;2024-02-23T02:56:14;1.00;1.00;1.00
46302;PMS7003;32029;51.358;5.628;2024-02-23T02:58:41;1.00;1.00;1.00
46302;PMS7003;32029;51.358;5.628;2024-02-23T03:01:07;1.00;1.00;1.00
46302;PMS7003;32029;51.358;5.628;2024-02-23T03:03:34;2.00;2.00;1.00
46302;PMS7003;32029;51.358;5.628;2024-02-23T03:06:01;1.00;1.00;0.00
46302;PMS7003;32029;51.358;5.628;2024-02-23T03:08:28;1.00;1.00;1.00
46302;PMS7003;32029;51.358;5.628;2024-02-23T03:10:54;5.33;2.00;2.00
46302;PMS7003;32029;51.358;5.628;2024-02-23T03:13:21;3.33;1.67;1.00
46302;PMS7003;32029;51.358;5.628;2024-02-23T03:15:48;0.00;0.00;0.00
46302;PMS7003;32029;51.358;5.628;2024-02-23T03:18:14;1.00;1.00;1.00
46302;PMS7003;32029;51.358;5.628;2024-02-23T03:20:41;4.67;1.00;1.00
46302;PMS7003;32029;51.358;5.628;2024-02-23T03:23:08;1.00;1.00;0.67
46302;PMS7003;32029;51.358;5.628;2024-02-23T03:25:35;1.33;1.33;1.00
46302;PMS7003;32029;51.358;5.628;2024-02-23T03:28:02;1.67;1.67;1.00
46302;PMS7003;32029;51.358;5.628;2024-02-23T03:30:28;1.00;1.00;1.00
46302;PMS7003;32029;51.358;5.628;2024-02-23T03:32:55;1.00;1.00;1.00
46302;PMS7003;32029;51.358;5.628;2024-02-23T03:35:22;2.00;2.00;1.00
46302;PMS7003;32029;51.358;5.628;2024-02-23T03:37:48;1.00;1.00;1.00
46302;PMS7003;32029;51.358;5.628;2024-02-23T03:40:15;1.00;1.00;1.00
46302;PMS7003;32029;51.358;5.628;2024-02-23T03:42:44;1.33;0.33;0.33
46302;PMS7003;32029;51.358;5.628;2024-02-23T03:45:11;1.00;1.00;0.00
46302;PMS7003;32029;51.358;5.628;2024-02-23T03:47:38;0.00;0.00;0.00
46302;PMS7003;32029;51.358;5.628;2024-02-23T03:50:05;1.00;1.00;0.00
46302;PMS7003;32029;51.358;5.628;2024-02-23T03:52:32;0.67;0.67;0.67
46302;PMS7003;32029;51.358;5.628;2024-02-23T03:54:58;1.00;0.00;0.00
46302;PMS7003;32029;51.358;5.628;2024-02-23T03:57:25;0.00;0.00;0.00
46302;PMS7003;32029;51.358;5.628;2024-02-23T03:59:53;0.33;0.33;0.00
46302;PMS7003;32029;51.358;5.628;2024-02-23T04:02:20;1.00;1.00;0.33
46302;PMS7003;32029;51.358;5.628;2024-02-23T04:04:47;1.00;1.00;0.00
46302;PMS7003;32029;51.358;5.628;2024-02-23T04:07:14;0.67;0.00;0.00
46302;PMS7003;32029;51.358;5.628;2024-02-23T04:09:41;1.00;1.00;0.00
46302;PMS7003;32029;51.358;5.628;2024-02-23T04:12:08;1.00;0.67;0.00
46302;PMS7003;32029;51.358;5.628;2024-02-23T04:14:34;4.00;1.33;1.00
46302;PMS7003;32029;51.358;5.628;2024-02-23T04:17:03;1.00;1.00;0.00
46302;PMS7003;32029;51.358;5.628;2024-02-23T04:19:29;4.00;0.33;0.33
46302;PMS7003;32029;51.358;5.628;2024-02-23T04:21:56;1.00;1.00;0.33
46302;PMS7003;32029;51.358;5.628;2024-02-23T04:24:23;0.00;0.00;0.00
46302;PMS7003;32029;51.358;5.628;2024-02-23T04:26:49;2.00;0.33;0.00
46302;PMS7003;32029;51.358;5.628;2024-02-23T04:29:16;2.00;1.00;0.00
46302;PMS7003;32029;51.358;5.628;2024-02-23T04:31:43;2.00;1.00;0.00
46302;PMS7003;32029;51.358;5.628;2024-02-23T04:34:10;1.33;0.33;0.00
46302;PMS7003;32029;51.358;5.628;2024-02-23T04:36:36;1.33;1.00;0.00
46302;PMS7003;32029;51.358;5.628;2024-02-23T04:39:03;1.00;1.00;1.00
46302;PMS7003;32029;51.358;5.628;2024-02-23T04:41:30;2.00;1.33;0.67
46302;PMS7003;32029;51.358;5.628;2024-02-23T04:43:57;1.33;1.00;0.00
46302;PMS7003;32029;51.358;5.628;2024-02-23T04:46:26;0.33;0.33;0.00
46302;PMS7003;32029;51.358;5.628;2024-02-23T04:48:53;0.67;0.00;0.00
46302;PMS7003;32029;51.358;5.628;2024-02-23T04:51:20;1.67;1.00;0.00
46302;PMS7003;32029;51.358;5.628;2024-02-23T04:53:49;0.00;0.00;0.00
46302;PMS7003;32029;51.358;5.628;2024-02-23T04:56:16;0.00;0.00;0.00
46302;PMS7003;32029;51.358;5.628;2024-02-23T04:58:43;0.67;0.67;0.00
46302;PMS7003;32029;51.358;5.628;2024-02-23T05:01:10;1.00;0.67;0.00
46302;PMS7003;32029;51.358;5.628;2024-02-23T05:03:37;0.33;0.33;0.00
46302;PMS7003;32029;51.358;5.628;2024-02-23T05:06:04;1.67;1.67;1.00
46302;PMS7003;32029;51.358;5.628;2024-02-23T05:08:30;0.00;0.00;0.00
46302;PMS7003;32029;51.358;5.628;2024-02-23T05:10:57;0.00;0.00;0.00
46302;PMS7003;32029;51.358;5.628;2024-02-23T05:13:24;0.00;0.00;0.00
46302;PMS7003;32029;51.358;5.628;2024-02-23T05:15:50;0.33;0.33;0.33
46302;PMS7003;32029;51.358;5.628;2024-02-23T05:18:17;2.00;1.00;0.00
46302;PMS7003;32029;51.358;5.628;2024-02-23T05:20:44;2.00;0.00;0.00
46302;PMS7003;32029;51.358;5.628;2024-02-23T05:23:10;0.00;0.00;0.00
46302;PMS7003;32029;51.358;5.628;2024-02-23T05:25:37;1.00;1.00;1.00
46302;PMS7003;32029;51.358;5.628;2024-02-23T05:28:04;2.00;0.00;0.00
46302;PMS7003;32029;51.358;5.628;2024-02-23T05:30:31;2.00;1.00;0.00
46302;PMS7003;32029;51.358;5.628;2024-02-23T05:32:58;0.67;0.67;0.00
46302;PMS7003;32029;51.358;5.628;2024-02-23T05:35:25;1.00;1.00;0.00
46302;PMS7003;32029;51.358;5.628;2024-02-23T05:37:52;2.00;1.00;1.00
46302;PMS7003;32029;51.358;5.628;2024-02-23T05:40:19;1.00;0.00;0.00
46302;PMS7003;32029;51.358;5.628;2024-02-23T05:42:46;0.00;0.00;0.00
46302;PMS7003;32029;51.358;5.628;2024-02-23T05:45:12;2.00;0.00;0.00
46302;PMS7003;32029;51.358;5.628;2024-02-23T05:47:39;0.33;0.00;0.00
46302;PMS7003;32029;51.358;5.628;2024-02-23T05:50:10;0.67;0.67;0.00
46302;PMS7003;32029;51.358;5.628;2024-02-23T05:52:39;0.33;0.00;0.00
46302;PMS7003;32029;51.358;5.628;2024-02-23T05:55:05;1.33;0.00;0.00
46302;PMS7003;32029;51.358;5.628;2024-02-23T05:57:32;1.67;1.00;0.00
46302;PMS7003;32029;51.358;5.628;2024-02-23T06:00:00;1.33;0.67;0.00
46302;PMS7003;32029;51.358;5.628;2024-02-23T06:02:26;3.00;1.00;1.00
46302;PMS7003;32029;51.358;5.628;2024-02-23T06:04:53;0.33;0.33;0.00
46302;PMS7003;32029;51.358;5.628;2024-02-23T06:07:20;2.00;2.00;1.00
46302;PMS7003;32029;51.358;5.628;2024-02-23T06:09:53;2.33;0.00;0.00
46302;PMS7003;32029;51.358;5.628;2024-02-23T06:12:19;0.00;0.00;0.00
46302;PMS7003;32029;51.358;5.628;2024-02-23T06:14:46;1.33;0.33;0.00
46302;PMS7003;32029;51.358;5.628;2024-02-23T06:17:13;1.00;0.00;0.00
46302;PMS7003;32029;51.358;5.628;2024-02-23T06:19:39;0.00;0.00;0.00
46302;PMS7003;32029;51.358;5.628;2024-02-23T06:22:08;0.00;0.00;0.00
46302;PMS7003;32029;51.358;5.628;2024-02-23T06:24:36;1.67;1.00;0.00
46302;PMS7003;32029;51.358;5.628;2024-02-23T06:27:03;1.00;1.00;0.00
46302;PMS7003;32029;51.358;5.628;2024-02-23T06:29:29;1.00;1.00;0.67
46302;PMS7003;32029;51.358;5.628;2024-02-23T06:31:56;1.67;1.67;1.00
46302;PMS7003;32029;51.358;5.628;2024-02-23T06:34:23;2.00;1.00;1.00
46302;PMS7003;32029;51.358;5.628;2024-02-23T06:36:50;0.00;0.00;0.00
46302;PMS7003;32029;51.358;5.628;2024-02-23T06:39:16;0.00;0.00;0.00
46302;PMS7003;32029;51.358;5.628;2024-02-23T06:41:44;1.00;1.00;0.00
46302;PMS7003;32029;51.358;5.628;2024-02-23T06:44:11;3.00;1.00;1.00
46302;PMS7003;32029;51.358;5.628;2024-02-23T06:46:37;1.67;1.00;0.00
46302;PMS7003;32029;51.358;5.628;2024-02-23T06:49:04;0.00;0.00;0.00
46302;PMS7003;32029;51.358;5.628;2024-02-23T06:51:31;1.67;1.00;1.00
46302;PMS7003;32029;51.358;5.628;2024-02-23T06:53:58;5.33;1.33;0.33
46302;PMS7003;32029;51.358;5.628;2024-02-23T06:56:25;0.00;0.00;0.00
46302;PMS7003;32029;51.358;5.628;2024-02-23T06:58:51;0.00;0.00;0.00
46302;PMS7003;32029;51.358;5.628;2024-02-23T07:01:19;1.33;0.67;0.00
46302;PMS7003;32029;51.358;5.628;2024-02-23T07:03:46;0.00;0.00;0.00
46302;PMS7003;32029;51.358;5.628;2024-02-23T07:06:15;1.00;1.00;1.00
46302;PMS7003;32029;51.358;5.628;2024-02-23T07:08:44;0.00;0.00;0.00
46302;PMS7003;32029;51.358;5.628;2024-02-23T07:11:11;0.00;0.00;0.00
46302;PMS7003;32029;51.358;5.628;2024-02-23T07:13:38;1.00;1.00;0.00
46302;PMS7003;32029;51.358;5.628;2024-02-23T07:16:08;1.00;0.00;0.00
46302;PMS7003;32029;51.358;5.628;2024-02-23T07:18:35;1.00;1.00;0.00
46302;PMS7003;32029;51.358;5.628;2024-02-23T07:21:02;2.67;0.00;0.00
46302;PMS7003;32029;51.358;5.628;2024-02-23T07:23:28;0.00;0.00;0.00
46302;PMS7003;32029;51.358;5.628;2024-02-23T07:25:55;0.00;0.00;0.00
46302;PMS7003;32029;51.358;5.628;2024-02-23T07:28:22;0.00;0.00;0.00
46302;PMS7003;32029;51.358;5.628;2024-02-23T07:30:49;0.00;0.00;0.00
46302;PMS7003;32029;51.358;5.628;2024-02-23T07:33:16;0.00;0.00;0.00
46302;PMS7003;32029;51.358;5.628;2024-02-23T07:35:42;2.00;1.00;1.00
46302;PMS7003;32029;51.358;5.628;2024-02-23T07:38:09;2.00;0.00;0.00
46302;PMS7003;32029;51.358;5.628;2024-02-23T07:40:36;1.00;1.00;1.00
46302;PMS7003;32029;51.358;5.628;2024-02-23T07:43:02;0.00;0.00;0.00
46302;PMS7003;32029;51.358;5.628;2024-02-23T07:45:29;2.00;1.00;0.00
46302;PMS7003;32029;51.358;5.628;2024-02-23T07:47:56;0.33;0.33;0.33
46302;PMS7003;32029;51.358;5.628;2024-02-23T07:50:23;0.00;0.00;0.00
46302;PMS7003;32029;51.358;5.628;2024-02-23T07:52:49;1.00;1.00;0.00
46302;PMS7003;32029;51.358;5.628;2024-02-23T07:55:16;0.33;0.00;0.00
46302;PMS7003;32029;51.358;5.628;2024-02-23T07:57:43;0.00;0.00;0.00
46302;PMS7003;32029;51.358;5.628;2024-02-23T08:00:09;0.67;0.67;0.00
46302;PMS7003;32029;51.358;5.628;2024-02-23T08:02:37;1.00;0.00;0.00
46302;PMS7003;32029;51.358;5.628;2024-02-23T08:05:04;2.33;0.00;0.00
46302;PMS7003;32029;51.358;5.628;2024-02-23T08:07:31;0.00;0.00;0.00
46302;PMS7003;32029;51.358;5.628;2024-02-23T08:09:57;0.00;0.00;0.00
46302;PMS7003;32029;51.358;5.628;2024-02-23T08:12:25;0.33;0.00;0.00
46302;PMS7003;32029;51.358;5.628;2024-02-23T08:14:52;0.00;0.00;0.00
46302;PMS7003;32029;51.358;5.628;2024-02-23T08:17:19;2.33;0.00;0.00
46302;PMS7003;32029;51.358;5.628;2024-02-23T08:19:48;1.67;1.00;0.00
46302;PMS7003;32029;51.358;5.628;2024-02-23T08:22:14;2.67;1.00;0.00
46302;PMS7003;32029;51.358;5.628;2024-02-23T08:24:41;0.00;0.00;0.00
46302;PMS7003;32029;51.358;5.628;2024-02-23T08:27:08;0.00;0.00;0.00
46302;PMS7003;32029;51.358;5.628;2024-02-23T08:29:37;0.67;0.00;0.00
46302;PMS7003;32029;51.358;5.628;2024-02-23T08:32:04;0.33;0.00;0.00
46302;PMS7003;32029;51.358;5.628;2024-02-23T08:34:31;0.00;0.00;0.00
46302;PMS7003;32029;51.358;5.628;2024-02-23T08:36:58;0.00;0.00;0.00
46302;PMS7003;32029;51.358;5.628;2024-02-23T08:39:24;0.00;0.00;0.00
46302;PMS7003;32029;51.358;5.628;2024-02-23T08:41:51;0.67;0.67;0.00
46302;PMS7003;32029;51.358;5.628;2024-02-23T08:44:19;0.00;0.00;0.00
46302;PMS7003;32029;51.358;5.628;2024-02-23T08:46:45;0.00;0.00;0.00
46302;PMS7003;32029;51.358;5.628;2024-02-23T08:49:14;0.00;0.00;0.00
46302;PMS7003;32029;51.358;5.628;2024-02-23T08:51:41;2.00;1.00;0.33
46302;PMS7003;32029;51.358;5.628;2024-02-23T08:54:07;1.00;0.00;0.00
46302;PMS7003;32029;51.358;5.628;2024-02-23T08:56:37;0.00;0.00;0.00
46302;PMS7003;32029;51.358;5.628;2024-02-23T08:59:08;0.00;0.00;0.00
46302;PMS7003;32029;51.358;5.628;2024-02-23T09:01:36;0.00;0.00;0.00
46302;PMS7003;32029;51.358;5.628;2024-02-23T09:04:02;1.33;0.00;0.00
46302;PMS7003;32029;51.358;5.628;2024-02-23T09:06:29;2.00;0.00;0.00
46302;PMS7003;32029;51.358;5.628;2024-02-23T09:08:56;0.00;0.00;0.00
46302;PMS7003;32029;51.358;5.628;2024-02-23T09:11:22;3.00;0.00;0.00
46302;PMS7003;32029;51.358;5.628;2024-02-23T09:13:49;0.33;0.33;0.33
46302;PMS7003;32029;51.358;5.628;2024-02-23T09:16:16;0.00;0.00;0.00
46302;PMS7003;32029;51.358;5.628;2024-02-23T09:18:42;0.33;0.33;0.33
46302;PMS7003;32029;51.358;5.628;2024-02-23T09:21:09;1.67;0.00;0.00
46302;PMS7003;32029;51.358;5.628;2024-02-23T09:23:36;2.67;0.67;0.67
46302;PMS7003;32029;51.358;5.628;2024-02-23T09:26:08;6.00;0.00;0.00
46302;PMS7003;32029;51.358;5.628;2024-02-23T09:28:36;0.00;0.00;0.00
46302;PMS7003;32029;51.358;5.628;2024-02-23T09:31:03;2.00;1.00;1.00
46302;PMS7003;32029;51.358;5.628;2024-02-23T09:33:30;1.33;0.00;0.00
46302;PMS7003;32029;51.358;5.628;2024-02-23T09:35:57;1.00;0.00;0.00
46302;PMS7003;32029;51.358;5.628;2024-02-23T09:38:25;1.00;1.00;0.67
46302;PMS7003;32029;51.358;5.628;2024-02-23T09:40:52;1.00;0.00;0.00
46302;PMS7003;32029;51.358;5.628;2024-02-23T09:43:20;1.67;0.00;0.00
46302;PMS7003;32029;51.358;5.628;2024-02-23T09:45:52;0.33;0.33;0.00
46302;PMS7003;32029;51.358;5.628;2024-02-23T09:48:20;2.00;0.00;0.00
46302;PMS7003;32029;51.358;5.628;2024-02-23T09:50:48;2.00;1.00;0.00
46302;PMS7003;32029;51.358;5.628;2024-02-23T09:53:16;0.00;0.00;0.00
46302;PMS7003;32029;51.358;5.628;2024-02-23T09:55:44;0.00;0.00;0.00
46302;PMS7003;32029;51.358;5.628;2024-02-23T09:58:14;0.00;0.00;0.00
46302;PMS7003;32029;51.358;5.628;2024-02-23T10:00:44;0.00;0.00;0.00
46302;PMS7003;32029;51.358;5.628;2024-02-23T10:03:12;3.00;1.00;0.00
46302;PMS7003;32029;51.358;5.628;2024-02-23T10:05:39;2.00;1.00;1.00
46302;PMS7003;32029;51.358;5.628;2024-02-23T10:08:08;0.00;0.00;0.00
46302;PMS7003;32029;51.358;5.628;2024-02-23T10:10:35;0.00;0.00;0.00
46302;PMS7003;32029;51.358;5.628;2024-02-23T10:13:03;1.00;0.00;0.00
46302;PMS7003;32029;51.358;5.628;2024-02-23T10:15:32;0.00;0.00;0.00
46302;PMS7003;32029;51.358;5.628;2024-02-23T10:17:59;0.00;0.00;0.00
46302;PMS7003;32029;51.358;5.628;2024-02-23T10:20:26;1.00;0.00;0.00
46302;PMS7003;32029;51.358;5.628;2024-02-23T10:22:52;1.67;0.00;0.00
46302;PMS7003;32029;51.358;5.628;2024-02-23T10:25:20;0.00;0.00;0.00
46302;PMS7003;32029;51.358;5.628;2024-02-23T10:27:47;1.00;0.00;0.00
46302;PMS7003;32029;51.358;5.628;2024-02-23T10:30:13;2.00;0.00;0.00
46302;PMS7003;32029;51.358;5.628;2024-02-23T10:32:41;2.67;1.00;1.00
46302;PMS7003;32029;51.358;5.628;2024-02-23T10:35:17;0.00;0.00;0.00
46302;PMS7003;32029;51.358;5.628;2024-02-23T10:37:44;1.00;0.00;0.00
46302;PMS7003;32029;51.358;5.628;2024-02-23T10:40:16;0.00;0.00;0.00
46302;PMS7003;32029;51.358;5.628;2024-02-23T10:42:45;0.33;0.00;0.00
46302;PMS7003;32029;51.358;5.628;2024-02-23T10:45:18;0.00;0.00;0.00
46302;PMS7003;32029;51.358;5.628;2024-02-23T10:47:45;0.00;0.00;0.00
46302;PMS7003;32029;51.358;5.628;2024-02-23T10:50:14;0.33;0.00;0.00
46302;PMS7003;32029;51.358;5.628;2024-02-23T10:52:44;0.00;0.00;0.00
46302;PMS7003;32029;51.358;5.628;2024-02-23T10:55:12;0.00;0.00;0.00
46302;PMS7003;32029;51.358;5.628;2024-02-23T10:57:38;1.00;0.00;0.00
46302;PMS7003;32029;51.358;5.628;2024-02-23T11:00:06;0.00;0.00;0.00
46302;PMS7003;32029;51.358;5.628;2024-02-23T11:02:40;0.00;0.00;0.00
46302;PMS7003;32029;51.358;5.628;2024-02-23T11:05:13;0.00;0.00;0.00
46302;PMS7003;32029;51.358;5.628;2024-02-23T11:07:42;0.00;0.00;0.00
46302;PMS7003;32029;51.358;5.628;2024-02-23T11:10:08;0.00;0.00;0.00
46302;PMS7003;32029;51.358;5.628;2024-02-23T11:12:39;0.00;0.00;0.00
46302;PMS7003;32029;51.358;5.628;2024-02-23T11:15:06;0.00;0.00;0.00
46302;PMS7003;32029;51.358;5.628;2024-02-23T11:17:35;0.00;0.00;0.00
46302;PMS7003;32029;51.358;5.628;2024-02-23T11:20:03;1.00;1.00;0.00
46302;PMS7003;32029;51.358;5.628;2024-02-23T11:22:31;0.00;0.00;0.00
46302;PMS7003;32029;51.358;5.628;2024-02-23T11:25:08;1.00;1.00;0.00
46302;PMS7003;32029;51.358;5.628;2024-02-23T11:27:36;0.00;0.00;0.00
46302;PMS7003;32029;51.358;5.628;2024-02-23T11:30:07;1.00;0.00;0.00
46302;PMS7003;32029;51.358;5.628;2024-02-23T11:32:37;2.00;0.00;0.00
46302;PMS7003;32029;51.358;5.628;2024-02-23T11:35:06;0.00;0.00;0.00
46302;PMS7003;32029;51.358;5.628;2024-02-23T11:37:46;0.00;0.00;0.00
46302;PMS7003;32029;51.358;5.628;2024-02-23T11:40:26;1.00;0.00;0.00
46302;PMS7003;32029;51.358;5.628;2024-02-23T11:42:54;0.00;0.00;0.00
46302;PMS7003;32029;51.358;5.628;2024-02-23T11:45:22;0.67;0.00;0.00
46302;PMS7003;32029;51.358;5.628;2024-02-23T11:47:50;0.00;0.00;0.00
46302;PMS7003;32029;51.358;5.628;2024-02-23T11:50:17;1.67;0.00;0.00
46302;PMS7003;32029;51.358;5.628;2024-02-23T11:52:47;0.33;0.00;0.00
46302;PMS7003;32029;51.358;5.628;2024-02-23T11:55:17;0.00;0.00;0.00
46302;PMS7003;32029;51.358;5.628;2024-02-23T11:57:48;0.00;0.00;0.00
46302;PMS7003;32029;51.358;5.628;2024-02-23T12:00:15;3.00;0.00;0.00
46302;PMS7003;32029;51.358;5.628;2024-02-23T12:02:43;1.67;0.67;0.00
46302;PMS7003;32029;51.358;5.628;2024-02-23T12:05:12;4.33;0.00;0.00
46302;PMS7003;32029;51.358;5.628;2024-02-23T12:07:40;2.00;0.67;0.67
46302;PMS7003;32029;51.358;5.628;2024-02-23T12:10:07;1.00;0.00;0.00
46302;PMS7003;32029;51.358;5.628;2024-02-23T12:12:34;0.67;0.00;0.00
46302;PMS7003;32029;51.358;5.628;2024-02-23T12:15:01;0.00;0.00;0.00
46302;PMS7003;32029;51.358;5.628;2024-02-23T12:17:28;1.00;0.00;0.00
46302;PMS7003;32029;51.358;5.628;2024-02-23T12:20:01;0.00;0.00;0.00
46302;PMS7003;32029;51.358;5.628;2024-02-23T12:22:29;0.00;0.00;0.00
46302;PMS7003;32029;51.358;5.628;2024-02-23T12:24:59;2.33;0.00;0.00
46302;PMS7003;32029;51.358;5.628;2024-02-23T12:27:29;0.00;0.00;0.00
46302;PMS7003;32029;51.358;5.628;2024-02-23T12:29:55;0.00;0.00;0.00
46302;PMS7003;32029;51.358;5.628;2024-02-23T12:32:23;0.00;0.00;0.00
46302;PMS7003;32029;51.358;5.628;2024-02-23T12:34:50;0.00;0.00;0.00
46302;PMS7003;32029;51.358;5.628;2024-02-23T12:37:20;0.00;0.00;0.00
46302;PMS7003;32029;51.358;5.628;2024-02-23T12:39:48;0.00;0.00;0.00
46302;PMS7003;32029;51.358;5.628;2024-02-23T12:42:15;2.00;0.00;0.00
46302;PMS7003;32029;51.358;5.628;2024-02-23T12:44:43;3.00;0.00;0.00
46302;PMS7003;32029;51.358;5.628;2024-02-23T12:47:09;0.00;0.00;0.00
46302;PMS7003;32029;51.358;5.628;2024-02-23T12:49:36;1.00;0.00;0.00
46302;PMS7003;32029;51.358;5.628;2024-02-23T12:52:03;0.00;0.00;0.00
46302;PMS7003;32029;51.358;5.628;2024-02-23T12:54:30;0.00;0.00;0.00
46302;PMS7003;32029;51.358;5.628;2024-02-23T12:56:57;0.00;0.00;0.00
46302;PMS7003;32029;51.358;5.628;2024-02-23T12:59:23;0.00;0.00;0.00
46302;PMS7003;32029;51.358;5.628;2024-02-23T13:01:50;0.00;0.00;0.00
46302;PMS7003;32029;51.358;5.628;2024-02-23T13:04:17;0.00;0.00;0.00
46302;PMS7003;32029;51.358;5.628;2024-02-23T13:06:44;0.33;0.00;0.00
46302;PMS7003;32029;51.358;5.628;2024-02-23T13:09:11;0.00;0.00;0.00
46302;PMS7003;32029;51.358;5.628;2024-02-23T13:11:38;0.00;0.00;0.00
46302;PMS7003;32029;51.358;5.628;2024-02-23T13:14:05;0.00;0.00;0.00
46302;PMS7003;32029;51.358;5.628;2024-02-23T13:16:32;0.33;0.33;0.00
46302;PMS7003;32029;51.358;5.628;2024-02-23T13:18:59;2.00;1.00;0.00
46302;PMS7003;32029;51.358;5.628;2024-02-23T13:21:26;1.00;0.00;0.00
46302;PMS7003;32029;51.358;5.628;2024-02-23T13:23:52;0.00;0.00;0.00
46302;PMS7003;32029;51.358;5.628;2024-02-23T13:26:19;0.00;0.00;0.00
46302;PMS7003;32029;51.358;5.628;2024-02-23T13:28:46;1.00;0.00;0.00
46302;PMS7003;32029;51.358;5.628;2024-02-23T13:31:13;1.00;0.00;0.00
46302;PMS7003;32029;51.358;5.628;2024-02-23T13:33:41;0.00;0.00;0.00
46302;PMS7003;32029;51.358;5.628;2024-02-23T13:36:08;3.00;0.00;0.00
46302;PMS7003;32029;51.358;5.628;2024-02-23T13:38:35;0.00;0.00;0.00
46302;PMS7003;32029;51.358;5.628;2024-02-23T13:41:04;1.00;0.00;0.00
46302;PMS7003;32029;51.358;5.628;2024-02-23T13:43:32;0.67;0.00;0.00
46302;PMS7003;32029;51.358;5.628;2024-02-23T13:45:59;2.00;0.00;0.00
46302;PMS7003;32029;51.358;5.628;2024-02-23T13:48:26;1.00;0.00;0.00
46302;PMS7003;32029;51.358;5.628;2024-02-23T13:50:53;1.33;0.00;0.00
46302;PMS7003;32029;51.358;5.628;2024-02-23T13:53:20;3.00;1.00;0.33
46302;PMS7003;32029;51.358;5.628;2024-02-23T13:55:46;2.00;0.00;0.00
46302;PMS7003;32029;51.358;5.628;2024-02-23T13:58:15;2.00;0.33;0.00
46302;PMS7003;32029;51.358;5.628;2024-02-23T14:00:41;0.00;0.00;0.00
46302;PMS7003;32029;51.358;5.628;2024-02-23T14:03:08;1.00;0.67;0.33
46302;PMS7003;32029;51.358;5.628;2024-02-23T14:05:41;2.00;0.33;0.00
46302;PMS7003;32029;51.358;5.628;2024-02-23T14:08:10;0.00;0.00;0.00
46302;PMS7003;32029;51.358;5.628;2024-02-23T14:10:38;0.00;0.00;0.00
46302;PMS7003;32029;51.358;5.628;2024-02-23T14:13:06;1.00;1.00;0.00
46302;PMS7003;32029;51.358;5.628;2024-02-23T14:15:32;1.00;1.00;0.00
46302;PMS7003;32029;51.358;5.628;2024-02-23T14:17:59;0.33;0.33;0.33
46302;PMS7003;32029;51.358;5.628;2024-02-23T14:20:26;1.00;0.00;0.00
46302;PMS7003;32029;51.358;5.628;2024-02-23T14:22:53;2.00;0.00;0.00
46302;PMS7003;32029;51.358;5.628;2024-02-23T14:25:19;0.67;0.67;0.00